sensor_id;sensor_type;location;lat;lon;timestamp;temperature;humidity
52867;DHT22;38739;53.324;6.862;2022-08-04T00:00:08;20.10;99.90
52867;DHT22;38739;53.324;6.862;2022-08-04T00:05:55;20.10;99.90
52867;DHT22;38739;53.324;6.862;2022-08-04T00:08:48;20.10;99.90
52867;DHT22;38739;53.324;6.862;2022-08-04T00:11:20;20.00;99.90
52867;DHT22;38739;53.324;6.862;2022-08-04T00:13:53;20.00;99.90
52867;DHT22;38739;53.324;6.862;2022-08-04T00:16:22;20.00;99.90
52867;DHT22;38739;53.324;6.862;2022-08-04T00:18:57;20.00;99.90
52867;DHT22;38739;53.324;6.862;2022-08-04T00:21:25;20.00;99.90
52867;DHT22;38739;53.324;6.862;2022-08-04T00:23:51;20.00;99.90
52867;DHT22;38739;53.324;6.862;2022-08-04T00:26:18;20.00;99.90
52867;DHT22;38739;53.324;6.862;2022-08-04T00:28:46;20.00;99.90
52867;DHT22;38739;53.324;6.862;2022-08-04T00:31:14;20.00;99.90
52867;DHT22;38739;53.324;6.862;2022-08-04T00:33:45;20.00;99.90
52867;DHT22;38739;53.324;6.862;2022-08-04T00:36:12;20.00;99.90
52867;DHT22;38739;53.324;6.862;2022-08-04T00:38:42;20.00;99.90
52867;DHT22;38739;53.324;6.862;2022-08-04T00:41:21;20.00;99.90
52867;DHT22;38739;53.324;6.862;2022-08-04T00:43:55;19.90;99.90
52867;DHT22;38739;53.324;6.862;2022-08-04T00:46:36;19.90;99.90
52867;DHT22;38739;53.324;6.862;2022-08-04T00:49:15;19.90;99.90
52867;DHT22;38739;53.324;6.862;2022-08-04T01:00:13;19.90;99.90
52867;DHT22;38739;53.324;6.862;2022-08-04T01:05:29;19.80;99.90
52867;DHT22;38739;53.324;6.862;2022-08-04T01:11:02;19.80;99.90
52867;DHT22;38739;53.324;6.862;2022-08-04T01:13:52;19.80;99.90
52867;DHT22;38739;53.324;6.862;2022-08-04T01:16:24;19.80;99.90
52867;DHT22;38739;53.324;6.862;2022-08-04T01:19:00;19.80;99.90
52867;DHT22;38739;53.324;6.862;2022-08-04T01:29:26;19.70;99.90
52867;DHT22;38739;53.324;6.862;2022-08-04T01:34:19;19.70;99.90
52867;DHT22;38739;53.324;6.862;2022-08-04T01:37:10;19.70;99.90
52867;DHT22;38739;53.324;6.862;2022-08-04T01:39:41;19.70;99.90
52867;DHT22;38739;53.324;6.862;2022-08-04T01:42:09;19.70;99.90
52867;DHT22;38739;53.324;6.862;2022-08-04T01:44:37;19.60;99.90
52867;DHT22;38739;53.324;6.862;2022-08-04T01:47:03;19.70;99.90
52867;DHT22;38739;53.324;6.862;2022-08-04T01:49:30;19.70;99.90
52867;DHT22;38739;53.324;6.862;2022-08-04T01:51:58;19.70;99.90
52867;DHT22;38739;53.324;6.862;2022-08-04T01:54:25;19.60;99.90
52867;DHT22;38739;53.324;6.862;2022-08-04T01:56:53;19.60;99.90
52867;DHT22;38739;53.324;6.862;2022-08-04T01:59:20;19.60;99.90
52867;DHT22;38739;53.324;6.862;2022-08-04T02:01:47;19.60;99.90
52867;DHT22;38739;53.324;6.862;2022-08-04T02:04:16;19.60;99.90
52867;DHT22;38739;53.324;6.862;2022-08-04T02:09:51;19.60;99.90
52867;DHT22;38739;53.324;6.862;2022-08-04T02:18:59;19.60;99.90
52867;DHT22;38739;53.324;6.862;2022-08-04T02:21:17;19.50;99.90
52867;DHT22;38739;53.324;6.862;2022-08-04T02:23:48;19.50;99.90
52867;DHT22;38739;53.324;6.862;2022-08-04T02:26:17;19.50;99.90
52867;DHT22;38739;53.324;6.862;2022-08-04T02:31:34;19.50;99.90
52867;DHT22;38739;53.324;6.862;2022-08-04T02:36:42;19.50;99.90
52867;DHT22;38739;53.324;6.862;2022-08-04T02:39:09;19.50;99.90
52867;DHT22;38739;53.324;6.862;2022-08-04T02:41:36;19.50;99.90
52867;DHT22;38739;53.324;6.862;2022-08-04T02:44:06;19.50;99.90
52867;DHT22;38739;53.324;6.862;2022-08-04T02:46:34;19.50;99.90
52867;DHT22;38739;53.324;6.862;2022-08-04T02:49:08;19.50;99.90
52867;DHT22;38739;53.324;6.862;2022-08-04T02:51:36;19.50;99.90
52867;DHT22;38739;53.324;6.862;2022-08-04T02:54:04;19.50;99.90
52867;DHT22;38739;53.324;6.862;2022-08-04T02:56:32;19.50;99.90
52867;DHT22;38739;53.324;6.862;2022-08-04T02:59:07;19.50;99.90
52867;DHT22;38739;53.324;6.862;2022-08-04T03:01:33;19.50;99.90
52867;DHT22;38739;53.324;6.862;2022-08-04T03:15:41;19.40;99.90
52867;DHT22;38739;53.324;6.862;2022-08-04T03:31:42;19.40;99.90
52867;DHT22;38739;53.324;6.862;2022-08-04T03:37:28;19.30;99.90
52867;DHT22;38739;53.324;6.862;2022-08-04T03:52:00;19.20;99.90
52867;DHT22;38739;53.324;6.862;2022-08-04T03:57:55;19.20;99.90
52867;DHT22;38739;53.324;6.862;2022-08-04T04:00:56;19.20;99.90
52867;DHT22;38739;53.324;6.862;2022-08-04T04:15:27;19.20;99.90
52867;DHT22;38739;53.324;6.862;2022-08-04T04:26:39;19.30;99.90
52867;DHT22;38739;53.324;6.862;2022-08-04T04:35:52;19.50;99.90
52867;DHT22;38739;53.324;6.862;2022-08-04T04:46:54;19.60;99.90
52867;DHT22;38739;53.324;6.862;2022-08-04T04:49:33;19.60;99.90
52867;DHT22;38739;53.324;6.862;2022-08-04T04:53:09;19.60;99.90
52867;DHT22;38739;53.324;6.862;2022-08-04T04:55:33;19.70;99.90
52867;DHT22;38739;53.324;6.862;2022-08-04T04:58:00;19.70;99.90
52867;DHT22;38739;53.324;6.862;2022-08-04T05:03:31;19.80;99.90
52867;DHT22;38739;53.324;6.862;2022-08-04T05:11:32;19.90;99.90
52867;DHT22;38739;53.324;6.862;2022-08-04T05:14:16;19.90;99.90
52867;DHT22;38739;53.324;6.862;2022-08-04T05:16:46;20.00;99.90
52867;DHT22;38739;53.324;6.862;2022-08-04T05:19:26;20.00;99.90
52867;DHT22;38739;53.324;6.862;2022-08-04T05:24:31;20.10;99.90
52867;DHT22;38739;53.324;6.862;2022-08-04T05:27:01;20.20;99.90
52867;DHT22;38739;53.324;6.862;2022-08-04T05:29:45;20.20;99.90
52867;DHT22;38739;53.324;6.862;2022-08-04T05:32:15;20.30;99.90
52867;DHT22;38739;53.324;6.862;2022-08-04T05:34:46;20.30;99.90
52867;DHT22;38739;53.324;6.862;2022-08-04T05:37:18;20.40;99.90
52867;DHT22;38739;53.324;6.862;2022-08-04T05:40:02;20.50;99.90
52867;DHT22;38739;53.324;6.862;2022-08-04T05:42:30;20.50;99.90
52867;DHT22;38739;53.324;6.862;2022-08-04T05:44:57;20.50;99.90
52867;DHT22;38739;53.324;6.862;2022-08-04T05:47:24;20.60;99.90
52867;DHT22;38739;53.324;6.862;2022-08-04T05:49:52;20.70;99.90
52867;DHT22;38739;53.324;6.862;2022-08-04T05:52:19;20.80;99.90
52867;DHT22;38739;53.324;6.862;2022-08-04T05:54:46;20.80;99.90
52867;DHT22;38739;53.324;6.862;2022-08-04T05:57:12;20.80;99.90
52867;DHT22;38739;53.324;6.862;2022-08-04T05:59:39;20.90;99.90
52867;DHT22;38739;53.324;6.862;2022-08-04T06:02:11;20.90;99.90
52867;DHT22;38739;53.324;6.862;2022-08-04T06:04:40;21.00;99.90
52867;DHT22;38739;53.324;6.862;2022-08-04T06:07:07;21.00;99.90
52867;DHT22;38739;53.324;6.862;2022-08-04T06:09:33;21.10;99.90
52867;DHT22;38739;53.324;6.862;2022-08-04T06:12:00;21.10;99.90
52867;DHT22;38739;53.324;6.862;2022-08-04T06:14:37;21.10;99.90
52867;DHT22;38739;53.324;6.862;2022-08-04T06:17:05;21.20;99.90
52867;DHT22;38739;53.324;6.862;2022-08-04T06:19:34;21.20;99.90
52867;DHT22;38739;53.324;6.862;2022-08-04T06:22:03;21.20;99.90
52867;DHT22;38739;53.324;6.862;2022-08-04T06:24:30;21.30;99.90
52867;DHT22;38739;53.324;6.862;2022-08-04T06:26:57;21.40;99.90
52867;DHT22;38739;53.324;6.862;2022-08-04T06:29:24;21.40;99.90
52867;DHT22;38739;53.324;6.862;2022-08-04T06:31:56;21.50;99.90
52867;DHT22;38739;53.324;6.862;2022-08-04T06:34:25;21.60;99.90
52867;DHT22;38739;53.324;6.862;2022-08-04T06:36:52;21.60;99.90
52867;DHT22;38739;53.324;6.862;2022-08-04T06:39:21;21.70;99.90
52867;DHT22;38739;53.324;6.862;2022-08-04T06:41:49;21.90;99.90
52867;DHT22;38739;53.324;6.862;2022-08-04T06:44:18;22.00;99.90
52867;DHT22;38739;53.324;6.862;2022-08-04T06:46:45;22.20;99.90
52867;DHT22;38739;53.324;6.862;2022-08-04T06:49:12;22.30;99.90
52867;DHT22;38739;53.324;6.862;2022-08-04T06:51:39;22.40;99.90
52867;DHT22;38739;53.324;6.862;2022-08-04T06:54:06;22.40;99.90
52867;DHT22;38739;53.324;6.862;2022-08-04T06:56:33;22.50;99.90
52867;DHT22;38739;53.324;6.862;2022-08-04T06:59:02;22.70;99.90
52867;DHT22;38739;53.324;6.862;2022-08-04T07:01:29;22.80;99.90
52867;DHT22;38739;53.324;6.862;2022-08-04T07:03:56;22.90;99.90
52867;DHT22;38739;53.324;6.862;2022-08-04T07:06:23;23.00;99.90
52867;DHT22;38739;53.324;6.862;2022-08-04T07:08:50;23.10;99.90
52867;DHT22;38739;53.324;6.862;2022-08-04T07:11:16;23.30;99.90
52867;DHT22;38739;53.324;6.862;2022-08-04T07:13:44;23.40;99.90
52867;DHT22;38739;53.324;6.862;2022-08-04T07:16:13;23.50;99.90
52867;DHT22;38739;53.324;6.862;2022-08-04T07:18:39;23.60;99.90
52867;DHT22;38739;53.324;6.862;2022-08-04T07:21:05;23.60;99.90
52867;DHT22;38739;53.324;6.862;2022-08-04T07:23:31;23.70;99.90
52867;DHT22;38739;53.324;6.862;2022-08-04T07:25:57;23.80;99.90
52867;DHT22;38739;53.324;6.862;2022-08-04T07:28:27;23.80;99.90
52867;DHT22;38739;53.324;6.862;2022-08-04T07:30:55;24.00;99.90
52867;DHT22;38739;53.324;6.862;2022-08-04T07:33:22;24.30;99.90
52867;DHT22;38739;53.324;6.862;2022-08-04T07:35:51;24.50;99.90
52867;DHT22;38739;53.324;6.862;2022-08-04T07:38:17;24.70;99.90
52867;DHT22;38739;53.324;6.862;2022-08-04T07:40:44;25.00;99.90
52867;DHT22;38739;53.324;6.862;2022-08-04T07:43:11;25.20;99.90
52867;DHT22;38739;53.324;6.862;2022-08-04T07:45:38;25.40;99.90
52867;DHT22;38739;53.324;6.862;2022-08-04T07:48:04;25.60;99.90
52867;DHT22;38739;53.324;6.862;2022-08-04T07:50:32;25.80;99.90
52867;DHT22;38739;53.324;6.862;2022-08-04T07:52:59;26.00;99.90
52867;DHT22;38739;53.324;6.862;2022-08-04T07:55:25;26.00;99.90
52867;DHT22;38739;53.324;6.862;2022-08-04T07:57:52;26.00;99.90
52867;DHT22;38739;53.324;6.862;2022-08-04T08:00:17;26.10;99.90
52867;DHT22;38739;53.324;6.862;2022-08-04T08:02:48;26.10;99.90
52867;DHT22;38739;53.324;6.862;2022-08-04T08:05:17;26.20;99.90
52867;DHT22;38739;53.324;6.862;2022-08-04T08:07:47;26.40;99.90
52867;DHT22;38739;53.324;6.862;2022-08-04T08:10:13;26.60;99.90
52867;DHT22;38739;53.324;6.862;2022-08-04T08:12:40;26.80;99.90
52867;DHT22;38739;53.324;6.862;2022-08-04T08:15:08;26.90;99.90
52867;DHT22;38739;53.324;6.862;2022-08-04T08:17:35;27.10;99.90
52867;DHT22;38739;53.324;6.862;2022-08-04T08:20:01;27.20;99.90
52867;DHT22;38739;53.324;6.862;2022-08-04T08:22:28;27.40;99.90
52867;DHT22;38739;53.324;6.862;2022-08-04T08:24:55;27.50;99.90
52867;DHT22;38739;53.324;6.862;2022-08-04T08:27:21;27.80;99.90
52867;DHT22;38739;53.324;6.862;2022-08-04T08:29:48;28.10;99.90
52867;DHT22;38739;53.324;6.862;2022-08-04T08:32:14;28.30;99.90
52867;DHT22;38739;53.324;6.862;2022-08-04T08:34:41;28.50;99.90
52867;DHT22;38739;53.324;6.862;2022-08-04T08:37:38;28.60;99.90
52867;DHT22;38739;53.324;6.862;2022-08-04T08:40:32;28.80;99.90
52867;DHT22;38739;53.324;6.862;2022-08-04T08:54:27;28.90;99.90
52867;DHT22;38739;53.324;6.862;2022-08-04T09:00:06;29.20;99.90
52867;DHT22;38739;53.324;6.862;2022-08-04T09:08:49;29.70;99.90
52867;DHT22;38739;53.324;6.862;2022-08-04T09:11:21;29.80;99.90
52867;DHT22;38739;53.324;6.862;2022-08-04T09:13:55;29.90;99.90
52867;DHT22;38739;53.324;6.862;2022-08-04T09:16:50;30.00;99.90
52867;DHT22;38739;53.324;6.862;2022-08-04T09:19:31;30.10;99.90
52867;DHT22;38739;53.324;6.862;2022-08-04T09:22:03;30.20;99.90
52867;DHT22;38739;53.324;6.862;2022-08-04T09:30:55;30.40;99.90
52867;DHT22;38739;53.324;6.862;2022-08-04T09:44:42;31.00;99.90
52867;DHT22;38739;53.324;6.862;2022-08-04T09:52:47;31.10;99.90
52867;DHT22;38739;53.324;6.862;2022-08-04T10:00:19;31.40;99.90
52867;DHT22;38739;53.324;6.862;2022-08-04T10:02:55;31.70;99.90
52867;DHT22;38739;53.324;6.862;2022-08-04T10:05:41;32.00;99.90
52867;DHT22;38739;53.324;6.862;2022-08-04T10:08:15;32.20;99.90
52867;DHT22;38739;53.324;6.862;2022-08-04T10:11:06;32.10;99.90
52867;DHT22;38739;53.324;6.862;2022-08-04T10:22:16;31.80;98.50
52867;DHT22;38739;53.324;6.862;2022-08-04T10:28:05;32.20;98.80
52867;DHT22;38739;53.324;6.862;2022-08-04T10:30:39;32.40;97.90
52867;DHT22;38739;53.324;6.862;2022-08-04T10:33:30;32.60;97.40
52867;DHT22;38739;53.324;6.862;2022-08-04T10:36:03;32.80;97.30
52867;DHT22;38739;53.324;6.862;2022-08-04T10:39:07;32.70;95.50
52867;DHT22;38739;53.324;6.862;2022-08-04T10:47:00;31.90;96.30
52867;DHT22;38739;53.324;6.862;2022-08-04T10:49:36;31.90;96.30
52867;DHT22;38739;53.324;6.862;2022-08-04T10:52:07;31.90;95.80
52867;DHT22;38739;53.324;6.862;2022-08-04T10:54:42;32.00;96.90
52867;DHT22;38739;53.324;6.862;2022-08-04T10:57:42;32.20;97.50
52867;DHT22;38739;53.324;6.862;2022-08-04T11:00:14;32.60;94.90
52867;DHT22;38739;53.324;6.862;2022-08-04T11:02:57;32.60;95.20
52867;DHT22;38739;53.324;6.862;2022-08-04T11:07:52;32.30;93.10
52867;DHT22;38739;53.324;6.862;2022-08-04T11:10:22;32.30;93.40
52867;DHT22;38739;53.324;6.862;2022-08-04T11:12:56;32.20;94.40
52867;DHT22;38739;53.324;6.862;2022-08-04T11:15:31;32.10;94.50
52867;DHT22;38739;53.324;6.862;2022-08-04T11:18:04;32.00;93.90
52867;DHT22;38739;53.324;6.862;2022-08-04T11:20:35;31.90;94.20
52867;DHT22;38739;53.324;6.862;2022-08-04T11:23:14;31.80;94.60
52867;DHT22;38739;53.324;6.862;2022-08-04T11:25:52;31.70;94.20
52867;DHT22;38739;53.324;6.862;2022-08-04T11:31:03;32.00;96.00
52867;DHT22;38739;53.324;6.862;2022-08-04T11:33:40;32.40;96.80
52867;DHT22;38739;53.324;6.862;2022-08-04T11:37:04;32.50;96.10
52867;DHT22;38739;53.324;6.862;2022-08-04T11:39:41;32.30;94.60
52867;DHT22;38739;53.324;6.862;2022-08-04T11:44:57;31.80;94.90
52867;DHT22;38739;53.324;6.862;2022-08-04T11:47:26;31.60;95.00
52867;DHT22;38739;53.324;6.862;2022-08-04T11:52:43;31.40;95.90
52867;DHT22;38739;53.324;6.862;2022-08-04T11:55:13;31.40;95.70
52867;DHT22;38739;53.324;6.862;2022-08-04T11:57:40;31.30;95.50
52867;DHT22;38739;53.324;6.862;2022-08-04T12:00:11;31.20;95.60
52867;DHT22;38739;53.324;6.862;2022-08-04T12:05:40;31.10;95.40
52867;DHT22;38739;53.324;6.862;2022-08-04T12:17:11;31.20;95.00
52867;DHT22;38739;53.324;6.862;2022-08-04T12:22:18;30.90;94.80
52867;DHT22;38739;53.324;6.862;2022-08-04T12:24:51;30.90;94.60
52867;DHT22;38739;53.324;6.862;2022-08-04T12:27:20;30.80;94.90
52867;DHT22;38739;53.324;6.862;2022-08-04T12:29:48;30.70;94.90
52867;DHT22;38739;53.324;6.862;2022-08-04T12:37:40;30.20;94.30
52867;DHT22;38739;53.324;6.862;2022-08-04T12:40:15;30.10;94.90
52867;DHT22;38739;53.324;6.862;2022-08-04T12:42:52;29.90;94.30
52867;DHT22;38739;53.324;6.862;2022-08-04T12:45:23;29.60;94.70
52867;DHT22;38739;53.324;6.862;2022-08-04T12:47:52;29.50;95.50
52867;DHT22;38739;53.324;6.862;2022-08-04T12:50:21;29.30;95.60
52867;DHT22;38739;53.324;6.862;2022-08-04T12:52:51;29.10;96.60
52867;DHT22;38739;53.324;6.862;2022-08-04T12:55:21;29.00;96.70
52867;DHT22;38739;53.324;6.862;2022-08-04T12:57:50;28.80;97.10
52867;DHT22;38739;53.324;6.862;2022-08-04T13:00:36;28.70;97.50
52867;DHT22;38739;53.324;6.862;2022-08-04T13:03:11;28.60;97.40
52867;DHT22;38739;53.324;6.862;2022-08-04T13:05:39;28.50;96.80
52867;DHT22;38739;53.324;6.862;2022-08-04T13:08:07;28.40;97.60
52867;DHT22;38739;53.324;6.862;2022-08-04T13:10:45;28.40;97.30
52867;DHT22;38739;53.324;6.862;2022-08-04T13:13:17;28.40;97.30
52867;DHT22;38739;53.324;6.862;2022-08-04T13:16:03;28.30;97.60
52867;DHT22;38739;53.324;6.862;2022-08-04T13:18:33;28.30;97.70
52867;DHT22;38739;53.324;6.862;2022-08-04T13:23:37;28.30;97.40
52867;DHT22;38739;53.324;6.862;2022-08-04T13:26:05;28.40;97.50
52867;DHT22;38739;53.324;6.862;2022-08-04T13:28:32;28.60;97.40
52867;DHT22;38739;53.324;6.862;2022-08-04T13:31:04;28.90;97.00
52867;DHT22;38739;53.324;6.862;2022-08-04T13:33:36;29.00;96.70
52867;DHT22;38739;53.324;6.862;2022-08-04T13:36:04;29.40;97.10
52867;DHT22;38739;53.324;6.862;2022-08-04T13:38:31;29.80;96.30
52867;DHT22;38739;53.324;6.862;2022-08-04T13:41:03;30.00;95.10
52867;DHT22;38739;53.324;6.862;2022-08-04T13:43:40;30.10;94.80
52867;DHT22;38739;53.324;6.862;2022-08-04T13:46:09;30.10;93.30
52867;DHT22;38739;53.324;6.862;2022-08-04T13:48:39;30.10;94.10
52867;DHT22;38739;53.324;6.862;2022-08-04T13:51:08;30.40;95.10
52867;DHT22;38739;53.324;6.862;2022-08-04T13:53:36;30.70;94.60
52867;DHT22;38739;53.324;6.862;2022-08-04T13:56:04;31.20;94.40
52867;DHT22;38739;53.324;6.862;2022-08-04T13:58:32;31.60;93.40
52867;DHT22;38739;53.324;6.862;2022-08-04T14:00:59;32.10;93.10
52867;DHT22;38739;53.324;6.862;2022-08-04T14:09:01;33.20;89.00
52867;DHT22;38739;53.324;6.862;2022-08-04T14:11:49;33.30;87.00
52867;DHT22;38739;53.324;6.862;2022-08-04T14:14:20;33.40;87.10
52867;DHT22;38739;53.324;6.862;2022-08-04T14:17:12;33.40;89.10
52867;DHT22;38739;53.324;6.862;2022-08-04T14:19:51;33.70;90.20
52867;DHT22;38739;53.324;6.862;2022-08-04T14:25:12;34.10;89.90
52867;DHT22;38739;53.324;6.862;2022-08-04T14:27:49;34.30;90.30
52867;DHT22;38739;53.324;6.862;2022-08-04T14:35:21;33.40;90.50
52867;DHT22;38739;53.324;6.862;2022-08-04T14:38:01;33.40;91.10
52867;DHT22;38739;53.324;6.862;2022-08-04T14:40:40;33.50;90.90
52867;DHT22;38739;53.324;6.862;2022-08-04T14:43:07;33.40;90.80
52867;DHT22;38739;53.324;6.862;2022-08-04T14:45:41;33.40;91.00
52867;DHT22;38739;53.324;6.862;2022-08-04T14:48:14;33.50;90.50
52867;DHT22;38739;53.324;6.862;2022-08-04T14:50:49;33.40;90.00
52867;DHT22;38739;53.324;6.862;2022-08-04T14:56:01;32.90;90.40
52867;DHT22;38739;53.324;6.862;2022-08-04T14:58:31;32.70;90.30
52867;DHT22;38739;53.324;6.862;2022-08-04T15:01:00;32.60;90.40
52867;DHT22;38739;53.324;6.862;2022-08-04T15:03:28;32.20;91.10
52867;DHT22;38739;53.324;6.862;2022-08-04T15:05:56;32.00;91.40
52867;DHT22;38739;53.324;6.862;2022-08-04T15:08:22;31.90;91.40
52867;DHT22;38739;53.324;6.862;2022-08-04T15:10:48;31.80;91.60
52867;DHT22;38739;53.324;6.862;2022-08-04T15:13:14;31.70;91.30
52867;DHT22;38739;53.324;6.862;2022-08-04T15:15:42;31.50;91.70
52867;DHT22;38739;53.324;6.862;2022-08-04T15:18:12;31.40;92.10
52867;DHT22;38739;53.324;6.862;2022-08-04T15:20:39;31.30;92.10
52867;DHT22;38739;53.324;6.862;2022-08-04T15:23:06;31.30;92.60
52867;DHT22;38739;53.324;6.862;2022-08-04T15:25:41;31.40;92.40
52867;DHT22;38739;53.324;6.862;2022-08-04T15:28:14;31.30;92.00
52867;DHT22;38739;53.324;6.862;2022-08-04T15:30:41;31.20;91.90
52867;DHT22;38739;53.324;6.862;2022-08-04T15:33:09;31.00;92.10
52867;DHT22;38739;53.324;6.862;2022-08-04T15:35:35;31.00;92.40
52867;DHT22;38739;53.324;6.862;2022-08-04T15:38:08;30.80;92.40
52867;DHT22;38739;53.324;6.862;2022-08-04T15:40:46;30.70;92.60
52867;DHT22;38739;53.324;6.862;2022-08-04T15:46:06;30.60;92.60
52867;DHT22;38739;53.324;6.862;2022-08-04T15:48:32;30.30;92.80
52867;DHT22;38739;53.324;6.862;2022-08-04T15:53:29;29.70;93.10
52867;DHT22;38739;53.324;6.862;2022-08-04T15:55:55;29.20;92.90
52867;DHT22;38739;53.324;6.862;2022-08-04T15:58:22;28.60;93.40
52867;DHT22;38739;53.324;6.862;2022-08-04T16:22:01;26.10;97.70
52867;DHT22;38739;53.324;6.862;2022-08-04T16:27:01;25.50;98.00
52867;DHT22;38739;53.324;6.862;2022-08-04T16:32:17;25.50;99.00
52867;DHT22;38739;53.324;6.862;2022-08-04T16:34:55;25.30;98.70
52867;DHT22;38739;53.324;6.862;2022-08-04T16:37:29;25.10;99.10
52867;DHT22;38739;53.324;6.862;2022-08-04T16:40:30;24.90;99.20
52867;DHT22;38739;53.324;6.862;2022-08-04T16:42:58;24.70;98.70
52867;DHT22;38739;53.324;6.862;2022-08-04T16:45:45;24.60;99.60
52867;DHT22;38739;53.324;6.862;2022-08-04T16:48:13;24.60;99.90
52867;DHT22;38739;53.324;6.862;2022-08-04T16:50:51;24.70;99.60
52867;DHT22;38739;53.324;6.862;2022-08-04T16:53:18;24.80;99.90
52867;DHT22;38739;53.324;6.862;2022-08-04T16:55:50;24.90;99.80
52867;DHT22;38739;53.324;6.862;2022-08-04T16:58:27;24.90;99.40
52867;DHT22;38739;53.324;6.862;2022-08-04T17:00:54;24.90;99.00
52867;DHT22;38739;53.324;6.862;2022-08-04T17:03:21;24.90;99.40
52867;DHT22;38739;53.324;6.862;2022-08-04T17:05:47;24.80;98.80
52867;DHT22;38739;53.324;6.862;2022-08-04T17:08:13;24.80;98.70
52867;DHT22;38739;53.324;6.862;2022-08-04T17:10:44;24.70;98.50
52867;DHT22;38739;53.324;6.862;2022-08-04T17:15:58;24.50;98.60
52867;DHT22;38739;53.324;6.862;2022-08-04T17:18:27;24.30;98.50
52867;DHT22;38739;53.324;6.862;2022-08-04T17:20:56;24.10;98.90
52867;DHT22;38739;53.324;6.862;2022-08-04T17:25:58;23.70;99.90
52867;DHT22;38739;53.324;6.862;2022-08-04T17:28:25;23.70;99.90
52867;DHT22;38739;53.324;6.862;2022-08-04T17:30:52;23.70;99.90
52867;DHT22;38739;53.324;6.862;2022-08-04T17:33:18;23.70;99.90
52867;DHT22;38739;53.324;6.862;2022-08-04T17:35:44;23.70;99.90
52867;DHT22;38739;53.324;6.862;2022-08-04T17:38:10;23.80;99.90
52867;DHT22;38739;53.324;6.862;2022-08-04T17:41:10;23.80;99.90
52867;DHT22;38739;53.324;6.862;2022-08-04T17:43:37;23.80;99.90
52867;DHT22;38739;53.324;6.862;2022-08-04T17:49:20;23.80;99.90
52867;DHT22;38739;53.324;6.862;2022-08-04T17:51:58;23.70;99.90
52867;DHT22;38739;53.324;6.862;2022-08-04T17:56:53;23.40;99.90
52867;DHT22;38739;53.324;6.862;2022-08-04T18:07:00;23.10;99.90
52867;DHT22;38739;53.324;6.862;2022-08-04T18:09:28;23.00;99.90
52867;DHT22;38739;53.324;6.862;2022-08-04T18:11:57;23.00;99.90
52867;DHT22;38739;53.324;6.862;2022-08-04T18:14:23;22.90;99.90
52867;DHT22;38739;53.324;6.862;2022-08-04T18:16:50;22.90;99.90
52867;DHT22;38739;53.324;6.862;2022-08-04T18:19:16;22.90;99.90
52867;DHT22;38739;53.324;6.862;2022-08-04T18:21:42;22.80;99.90
52867;DHT22;38739;53.324;6.862;2022-08-04T18:24:11;22.70;99.90
52867;DHT22;38739;53.324;6.862;2022-08-04T18:26:37;22.70;99.90
52867;DHT22;38739;53.324;6.862;2022-08-04T18:29:04;22.70;99.90
52867;DHT22;38739;53.324;6.862;2022-08-04T18:31:32;22.50;99.90
52867;DHT22;38739;53.324;6.862;2022-08-04T18:33:58;22.40;99.90
52867;DHT22;38739;53.324;6.862;2022-08-04T18:36:24;22.30;99.90
52867;DHT22;38739;53.324;6.862;2022-08-04T18:38:50;22.20;99.90
52867;DHT22;38739;53.324;6.862;2022-08-04T18:41:16;22.20;99.90
52867;DHT22;38739;53.324;6.862;2022-08-04T18:43:42;22.10;99.90
52867;DHT22;38739;53.324;6.862;2022-08-04T18:46:07;22.00;99.90
52867;DHT22;38739;53.324;6.862;2022-08-04T18:48:33;21.90;99.90
52867;DHT22;38739;53.324;6.862;2022-08-04T18:50:59;21.80;99.90
52867;DHT22;38739;53.324;6.862;2022-08-04T18:53:24;21.70;99.90
52867;DHT22;38739;53.324;6.862;2022-08-04T18:55:51;21.60;99.90
52867;DHT22;38739;53.324;6.862;2022-08-04T18:58:16;21.50;99.90
52867;DHT22;38739;53.324;6.862;2022-08-04T19:00:42;21.40;99.90
52867;DHT22;38739;53.324;6.862;2022-08-04T19:03:08;21.30;99.90
52867;DHT22;38739;53.324;6.862;2022-08-04T19:05:33;21.20;99.90
52867;DHT22;38739;53.324;6.862;2022-08-04T19:07:59;21.10;99.90
52867;DHT22;38739;53.324;6.862;2022-08-04T19:10:25;21.00;99.90
52867;DHT22;38739;53.324;6.862;2022-08-04T19:12:50;20.90;99.90
52867;DHT22;38739;53.324;6.862;2022-08-04T19:15:16;20.80;99.90
52867;DHT22;38739;53.324;6.862;2022-08-04T19:17:42;20.80;99.90
52867;DHT22;38739;53.324;6.862;2022-08-04T19:20:08;20.80;99.90
52867;DHT22;38739;53.324;6.862;2022-08-04T19:22:34;20.70;99.90
52867;DHT22;38739;53.324;6.862;2022-08-04T19:24:59;20.70;99.90
52867;DHT22;38739;53.324;6.862;2022-08-04T19:27:25;20.70;99.90
52867;DHT22;38739;53.324;6.862;2022-08-04T19:29:51;20.60;99.90
52867;DHT22;38739;53.324;6.862;2022-08-04T19:32:17;20.60;99.90
52867;DHT22;38739;53.324;6.862;2022-08-04T19:34:44;20.50;99.90
52867;DHT22;38739;53.324;6.862;2022-08-04T19:37:10;20.50;99.90
52867;DHT22;38739;53.324;6.862;2022-08-04T19:39:36;20.40;99.90
52867;DHT22;38739;53.324;6.862;2022-08-04T19:42:02;20.40;99.90
52867;DHT22;38739;53.324;6.862;2022-08-04T19:44:27;20.30;99.90
52867;DHT22;38739;53.324;6.862;2022-08-04T19:46:53;20.20;99.90
52867;DHT22;38739;53.324;6.862;2022-08-04T19:49:19;20.10;99.90
52867;DHT22;38739;53.324;6.862;2022-08-04T19:51:44;20.10;99.90
52867;DHT22;38739;53.324;6.862;2022-08-04T19:54:10;20.00;99.90
52867;DHT22;38739;53.324;6.862;2022-08-04T19:56:36;20.00;99.90
52867;DHT22;38739;53.324;6.862;2022-08-04T19:59:02;19.90;99.90
52867;DHT22;38739;53.324;6.862;2022-08-04T20:01:28;19.90;99.90
52867;DHT22;38739;53.324;6.862;2022-08-04T20:03:53;19.80;99.90
52867;DHT22;38739;53.324;6.862;2022-08-04T20:06:19;19.80;99.90
52867;DHT22;38739;53.324;6.862;2022-08-04T20:08:45;19.70;99.90
52867;DHT22;38739;53.324;6.862;2022-08-04T20:11:10;19.70;99.90
52867;DHT22;38739;53.324;6.862;2022-08-04T20:13:36;19.60;99.90
52867;DHT22;38739;53.324;6.862;2022-08-04T20:16:02;19.60;99.90
52867;DHT22;38739;53.324;6.862;2022-08-04T20:18:28;19.60;99.90
52867;DHT22;38739;53.324;6.862;2022-08-04T20:20:53;19.50;99.90
52867;DHT22;38739;53.324;6.862;2022-08-04T20:23:19;19.50;99.90
52867;DHT22;38739;53.324;6.862;2022-08-04T20:25:46;19.40;99.90
52867;DHT22;38739;53.324;6.862;2022-08-04T20:28:15;19.40;99.90
52867;DHT22;38739;53.324;6.862;2022-08-04T20:30:41;19.30;99.90
52867;DHT22;38739;53.324;6.862;2022-08-04T20:33:08;19.30;99.90
52867;DHT22;38739;53.324;6.862;2022-08-04T20:35:34;19.20;99.90
52867;DHT22;38739;53.324;6.862;2022-08-04T20:38:01;19.20;99.90
52867;DHT22;38739;53.324;6.862;2022-08-04T20:40:26;19.10;99.90
52867;DHT22;38739;53.324;6.862;2022-08-04T20:42:52;19.10;99.90
52867;DHT22;38739;53.324;6.862;2022-08-04T20:45:19;19.00;99.90
52867;DHT22;38739;53.324;6.862;2022-08-04T20:47:44;19.00;99.90
52867;DHT22;38739;53.324;6.862;2022-08-04T20:50:10;18.90;99.90